createdAt,value
2019-01-06T00:02:26.134Z,102840.00
2019-01-06T00:05:05.741Z,102846.00
2019-01-06T00:07:48.707Z,102842.00
2019-01-06T00:10:19.805Z,102848.00
2019-01-06T00:12:53.764Z,102852.00
2019-01-06T00:15:30.751Z,102845.00
2019-01-06T00:18:10.914Z,102846.00
2019-01-06T00:20:57.927Z,102838.00
2019-01-06T00:23:29.045Z,102846.00
2019-01-06T00:26:00.161Z,102840.00
2019-01-06T00:28:47.451Z,102838.00
2019-01-06T00:31:24.274Z,102851.00
2019-01-06T00:34:11.721Z,102857.00
2019-01-06T00:36:59.090Z,102858.00
2019-01-06T00:39:30.166Z,102863.00
2019-01-06T00:42:03.896Z,102861.00
2019-01-06T00:44:37.427Z,102859.00
2019-01-06T00:47:08.575Z,102862.00
2019-01-06T00:49:39.636Z,102866.00
2019-01-06T00:52:26.888Z,102868.00
2019-01-06T00:55:06.604Z,102861.00
2019-01-06T00:57:40.250Z,102867.00
2019-01-06T01:00:14.465Z,102868.00
2019-01-06T01:02:45.542Z,102860.00
2019-01-06T01:05:19.468Z,102871.00
2019-01-06T01:07:50.608Z,102872.00
2019-01-06T01:10:37.819Z,102877.00
2019-01-06T01:13:17.957Z,102875.00
2019-01-06T01:15:51.625Z,102883.00
2019-01-06T01:18:22.824Z,102882.00
2019-01-06T01:20:53.897Z,102877.00
2019-01-06T01:23:42.953Z,102877.00
2019-01-06T01:26:14.011Z,102871.00
2019-01-06T01:28:53.916Z,102878.00
2019-01-06T01:31:40.914Z,102880.00
2019-01-06T01:34:18.066Z,102900.00
2019-01-06T01:36:55.096Z,102896.00
2019-01-06T01:39:26.205Z,102895.00
2019-01-06T01:42:06.236Z,102891.00
2019-01-06T01:44:53.399Z,102897.00
2019-01-06T01:47:24.501Z,102903.00
2019-01-06T01:50:11.793Z,102905.00
2019-01-06T01:52:42.885Z,102910.00
2019-01-06T01:55:29.037Z,102909.00
2019-01-06T01:58:18.016Z,102915.00
2019-01-06T02:00:49.122Z,102906.00
2019-01-06T02:03:26.399Z,102912.00
2019-01-06T02:06:09.343Z,102916.00
2019-01-06T02:08:42.904Z,102915.00
2019-01-06T02:11:16.880Z,102921.00
2019-01-06T02:13:47.982Z,102919.00
2019-01-06T02:19:00.944Z,102909.00
2019-01-06T02:21:47.989Z,102920.00
2019-01-06T02:24:21.777Z,102918.00
2019-01-06T02:27:01.723Z,102925.00
2019-01-06T02:29:35.591Z,102916.00
2019-01-06T02:32:18.667Z,102912.00
2019-01-06T02:35:01.955Z,102921.00
2019-01-06T02:37:49.387Z,102913.00
2019-01-06T02:40:20.499Z,102915.00
2019-01-06T02:42:57.617Z,102918.00
2019-01-06T02:45:28.816Z,102914.00
2019-01-06T02:48:12.160Z,102917.00
2019-01-06T02:50:55.472Z,102919.00
2019-01-06T02:53:38.298Z,102920.00
2019-01-06T02:56:09.416Z,102910.00
2019-01-06T02:58:49.451Z,102906.00
2019-01-06T03:01:36.830Z,102910.00
2019-01-06T03:04:19.674Z,102905.00
2019-01-06T03:06:59.970Z,102906.00
2019-01-06T03:09:47.625Z,102899.00
2019-01-06T03:12:24.510Z,102890.00
2019-01-06T03:14:58.370Z,102902.00
2019-01-06T03:17:38.514Z,102889.00
2019-01-06T03:20:25.876Z,102882.00
2019-01-06T03:23:05.900Z,102880.00
2019-01-06T03:25:39.742Z,102880.00
2019-01-06T03:28:16.491Z,102878.00
2019-01-06T03:30:56.523Z,102882.00
2019-01-06T03:33:44.095Z,102882.00
2019-01-06T03:36:31.297Z,102882.00
2019-01-06T03:39:08.239Z,102884.00
2019-01-06T03:41:54.451Z,102875.00
2019-01-06T03:44:25.538Z,102882.00
2019-01-06T03:47:12.958Z,102871.00
2019-01-06T03:49:44.065Z,102876.00
2019-01-06T03:52:21.183Z,102871.00
2019-01-06T03:55:08.361Z,102876.00
2019-01-06T03:57:45.298Z,102876.00
2019-01-06T04:00:22.223Z,102881.00
2019-01-06T04:02:53.339Z,102864.00
2019-01-06T04:05:26.969Z,102866.00
2019-01-06T04:08:00.631Z,102863.00
2019-01-06T04:10:47.729Z,102861.00
2019-01-06T04:13:18.916Z,102858.00
2019-01-06T04:15:59.085Z,102858.00
2019-01-06T04:18:30.262Z,102848.00
2019-01-06T04:21:17.355Z,102850.00
2019-01-06T04:24:08.011Z,102847.00
2019-01-06T04:26:57.016Z,102851.00
2019-01-06T04:29:39.903Z,102852.00
2019-01-06T04:32:13.607Z,102849.00
2019-01-06T04:34:50.452Z,102847.00
2019-01-06T04:37:39.703Z,102847.00
2019-01-06T04:40:13.357Z,102833.00
2019-01-06T04:42:53.527Z,102835.00
2019-01-06T04:45:27.540Z,102837.00
2019-01-06T04:48:14.675Z,102838.00
2019-01-06T04:51:02.066Z,102828.00
2019-01-06T04:53:35.982Z,102829.00
2019-01-06T04:56:18.895Z,102822.00
2019-01-06T04:58:49.962Z,102829.00
2019-01-06T05:01:36.975Z,102825.00
2019-01-06T05:04:08.086Z,102824.00
2019-01-06T05:06:54.108Z,102828.00
2019-01-06T05:09:27.767Z,102828.00
2019-01-06T05:12:14.098Z,102820.00
2019-01-06T05:14:45.207Z,102820.00
2019-01-06T05:17:32.409Z,102821.00
2019-01-06T05:20:15.371Z,102817.00
2019-01-06T05:22:52.582Z,102831.00
2019-01-06T05:25:29.470Z,102819.00
2019-01-06T05:28:00.510Z,102818.00
2019-01-06T05:30:47.734Z,102818.00
2019-01-06T05:33:21.441Z,102825.00
2019-01-06T05:35:58.534Z,102820.00
2019-01-06T05:38:32.075Z,102832.00
2019-01-06T05:41:19.304Z,102828.00
2019-01-06T05:43:50.383Z,102836.00
2019-01-06T05:46:37.411Z,102839.00
2019-01-06T05:49:11.109Z,102841.00
2019-01-06T05:51:57.368Z,102836.00
2019-01-06T05:54:28.475Z,102841.00
2019-01-06T05:57:02.418Z,102837.00
2019-01-06T05:59:33.488Z,102837.00
2019-01-06T06:02:07.295Z,102843.00
2019-01-06T06:04:53.572Z,102842.00
2019-01-06T06:07:27.262Z,102843.00
2019-01-06T06:10:04.193Z,102848.00
2019-01-06T06:12:50.377Z,102856.00
2019-01-06T06:15:36.792Z,102851.00
2019-01-06T06:18:23.856Z,102857.00
2019-01-06T06:20:57.969Z,102858.00
2019-01-06T06:23:37.920Z,102860.00
2019-01-06T06:26:25.075Z,102862.00
2019-01-06T06:28:58.997Z,102862.00
2019-01-06T06:31:30.167Z,102867.00
2019-01-06T06:34:07.216Z,102868.00
2019-01-06T06:36:44.237Z,102875.00
2019-01-06T06:39:15.340Z,102880.00
2019-01-06T06:41:46.426Z,102871.00
2019-01-06T06:44:23.201Z,102878.00
2019-01-06T06:47:12.448Z,102879.00
2019-01-06T06:49:43.524Z,102881.00
2019-01-06T06:52:17.396Z,102885.00
2019-01-06T06:54:51.417Z,102888.00
2019-01-06T06:58:27.193Z,102895.00
2019-01-06T07:01:38.715Z,102888.00
2019-01-06T07:04:12.677Z,102898.00
2019-01-06T07:06:46.817Z,102903.00
2019-01-06T07:09:20.476Z,102898.00
2019-01-06T07:11:54.146Z,102902.00
2019-01-06T07:14:28.033Z,102905.00
2019-01-06T07:17:57.796Z,102899.00
2019-01-06T07:20:34.275Z,102904.00
2019-01-06T07:23:11.168Z,102913.00
2019-01-06T07:25:51.389Z,102927.00
2019-01-06T07:28:40.660Z,102916.00
2019-01-06T07:31:28.129Z,102919.00
2019-01-06T07:33:59.216Z,102920.00
2019-01-06T07:36:33.022Z,102936.00
2019-01-06T07:39:18.860Z,102935.00
2019-01-06T07:41:52.766Z,102939.00
2019-01-06T07:44:41.637Z,102947.00
2019-01-06T07:47:15.313Z,102941.00
2019-01-06T07:50:02.583Z,102947.00
2019-01-06T07:52:33.684Z,102940.00
2019-01-06T07:55:16.831Z,102951.00
2019-01-06T07:57:53.667Z,102948.00
2019-01-06T08:00:30.880Z,102952.00
2019-01-06T08:03:16.623Z,102953.00
2019-01-06T08:06:03.931Z,102963.00
2019-01-06T08:08:37.854Z,102964.00
2019-01-06T08:11:14.756Z,102961.00
2019-01-06T08:13:51.687Z,102960.00
2019-01-06T08:16:39.000Z,102962.00
2019-01-06T08:19:16.195Z,102956.00
2019-01-06T08:21:49.821Z,102966.00
2019-01-06T08:24:20.937Z,102965.00
2019-01-06T08:26:58.023Z,102967.00
2019-01-06T08:29:45.143Z,102965.00
2019-01-06T08:32:21.832Z,102967.00
2019-01-06T08:35:09.206Z,102968.00
2019-01-06T08:37:45.890Z,102961.00
2019-01-06T08:40:33.373Z,102963.00
2019-01-06T08:43:16.427Z,102962.00
2019-01-06T08:46:03.522Z,102968.00
2019-01-06T08:48:46.529Z,102962.00
2019-01-06T08:51:33.577Z,102957.00
2019-01-06T08:54:13.606Z,102958.00
2019-01-06T08:56:44.676Z,102955.00
2019-01-06T08:59:24.615Z,102962.00
2019-01-06T09:01:55.760Z,102967.00
2019-01-06T09:04:42.820Z,102956.00
2019-01-06T09:07:16.923Z,102959.00
2019-01-06T09:10:00.364Z,102964.00
2019-01-06T09:12:45.301Z,102966.00
2019-01-06T09:15:34.524Z,102962.00
2019-01-06T09:18:14.337Z,102960.00
2019-01-06T09:21:03.637Z,102966.00
2019-01-06T09:23:49.926Z,102965.00
2019-01-06T09:26:29.697Z,102971.00
2019-01-06T09:29:17.040Z,102963.00
2019-01-06T09:32:03.244Z,102970.00
2019-01-06T09:37:07.129Z,102965.00
2019-01-06T09:39:54.668Z,102975.00
2019-01-06T09:42:31.951Z,102978.00
2019-01-06T09:45:03.058Z,102979.00
2019-01-06T09:47:34.238Z,102984.00
2019-01-06T09:50:10.894Z,102991.00
2019-01-06T09:52:58.953Z,102982.00
2019-01-06T09:55:48.484Z,102990.00
2019-01-06T09:58:29.159Z,102994.00
2019-01-06T10:01:16.671Z,103001.00
2019-01-06T10:03:59.902Z,102992.00
2019-01-06T10:06:36.766Z,102996.00
2019-01-06T10:09:29.190Z,102997.00
2019-01-06T10:12:16.706Z,102997.00
2019-01-06T10:15:00.799Z,103004.00
2019-01-06T10:17:41.264Z,103003.00
2019-01-06T10:20:24.488Z,102998.00
2019-01-06T10:23:07.716Z,102997.00
2019-01-06T10:25:50.946Z,102998.00
2019-01-06T10:28:33.885Z,102998.00
2019-01-06T10:33:59.651Z,102995.00
2019-01-06T10:36:31.059Z,103005.00
2019-01-06T10:39:17.370Z,102993.00
2019-01-06T10:41:50.912Z,102992.00
2019-01-06T10:44:38.901Z,102993.00
2019-01-06T10:47:10.055Z,102994.00
2019-01-06T10:49:57.547Z,102995.00
2019-01-06T10:52:34.420Z,103005.00
2019-01-06T10:55:06.071Z,102999.00
2019-01-06T10:57:52.199Z,102998.00
2019-01-06T11:00:29.278Z,102996.00
2019-01-06T11:03:00.378Z,103003.00
2019-01-06T11:05:43.393Z,103005.00
2019-01-06T11:08:30.518Z,102997.00
2019-01-06T11:11:16.791Z,103004.00
2019-01-06T11:13:59.634Z,103001.00
2019-01-06T11:16:33.501Z,102998.00
2019-01-06T11:19:16.860Z,103005.00
2019-01-06T11:22:06.296Z,102996.00
2019-01-06T11:24:43.463Z,102998.00
2019-01-06T11:27:14.552Z,102990.00
2019-01-06T11:29:51.675Z,102994.00
2019-01-06T11:32:39.041Z,102987.00
2019-01-06T11:35:19.317Z,102986.00
2019-01-06T11:37:52.984Z,102988.00
2019-01-06T11:40:40.401Z,102991.00
2019-01-06T11:43:17.108Z,102977.00
2019-01-06T11:45:53.837Z,102992.00
2019-01-06T11:48:40.962Z,102985.00
2019-01-06T11:51:17.786Z,102983.00
2019-01-06T11:54:04.121Z,102987.00
2019-01-06T11:56:51.424Z,102984.00
2019-01-06T11:59:34.433Z,102984.00
2019-01-06T12:02:20.458Z,102982.00
2019-01-06T12:05:00.332Z,102978.00
2019-01-06T12:07:40.196Z,102970.00
2019-01-06T12:10:29.533Z,102969.00
2019-01-06T12:13:16.493Z,102976.00
2019-01-06T12:15:50.221Z,102970.00
2019-01-06T12:18:33.198Z,102966.00
2019-01-06T12:21:04.366Z,102965.00
2019-01-06T12:23:50.668Z,102970.00
2019-01-06T12:26:33.469Z,102961.00
2019-01-06T12:29:22.704Z,102962.00
2019-01-06T12:31:56.413Z,102958.00
2019-01-06T12:34:33.456Z,102957.00
2019-01-06T12:37:07.157Z,102953.00
2019-01-06T12:39:47.003Z,102948.00
2019-01-06T12:42:36.135Z,102952.00
2019-01-06T12:45:20.190Z,102951.00
2019-01-06T12:48:00.227Z,102948.00
2019-01-06T12:50:34.317Z,102946.00
2019-01-06T12:53:11.176Z,102952.00
2019-01-06T12:55:54.244Z,102960.00
2019-01-06T12:58:41.603Z,102964.00
2019-01-06T13:01:12.742Z,102962.00
2019-01-06T13:03:56.067Z,102967.00
2019-01-06T13:06:42.047Z,102961.00
2019-01-06T13:09:29.454Z,102971.00
2019-01-06T13:12:18.500Z,102963.00
2019-01-06T13:14:49.666Z,102963.00
2019-01-06T13:17:36.973Z,102960.00
2019-01-06T13:20:25.390Z,102958.00
2019-01-06T13:23:08.324Z,102963.00
2019-01-06T13:25:54.386Z,102966.00
2019-01-06T13:28:41.479Z,102964.00
2019-01-06T13:31:18.220Z,102967.00
2019-01-06T13:33:58.193Z,102969.00
2019-01-06T13:36:29.353Z,102971.00
2019-01-06T13:39:16.524Z,102967.00
2019-01-06T13:41:59.519Z,102974.00
2019-01-06T13:44:36.239Z,102972.00
2019-01-06T13:47:07.335Z,102978.00
2019-01-06T13:49:54.839Z,102979.00
2019-01-06T13:52:31.517Z,102971.00
2019-01-06T13:55:17.846Z,102983.00
2019-01-06T13:58:00.326Z,102982.00
2019-01-06T14:00:31.461Z,102982.00
2019-01-06T14:03:18.564Z,102982.00
2019-01-06T14:05:52.482Z,102985.00
2019-01-06T14:08:35.641Z,102988.00
2019-01-06T14:11:19.038Z,102990.00
2019-01-06T14:13:52.778Z,102996.00
2019-01-06T14:16:32.933Z,102996.00
2019-01-06T14:19:20.253Z,102996.00
2019-01-06T14:22:00.392Z,102996.00
2019-01-06T14:24:48.006Z,103000.00
2019-01-06T14:27:25.339Z,103006.00
2019-01-06T14:29:56.842Z,103003.00
2019-01-06T14:32:30.597Z,103014.00
2019-01-06T14:35:18.064Z,103004.00
2019-01-06T14:37:52.163Z,102999.00
2019-01-06T14:40:32.384Z,103001.00
2019-01-06T14:43:12.313Z,103004.00
2019-01-06T14:45:43.446Z,102992.00
2019-01-06T14:48:14.730Z,103001.00
2019-01-06T14:51:02.698Z,102998.00
2019-01-06T14:53:52.411Z,102996.00
2019-01-06T14:56:23.920Z,103009.00
2019-01-06T14:59:01.526Z,103010.00
2019-01-06T15:01:50.291Z,103010.00
2019-01-06T15:04:30.775Z,103013.00
2019-01-06T15:07:17.965Z,103016.00
2019-01-06T15:10:05.411Z,103013.00
2019-01-06T15:12:39.141Z,103017.00
2019-01-06T15:15:16.076Z,103024.00
2019-01-06T15:18:03.500Z,103022.00
2019-01-06T15:20:40.243Z,103024.00
2019-01-06T15:23:27.619Z,103026.00
2019-01-06T15:26:15.162Z,103026.00
2019-01-06T15:28:46.265Z,103025.00
2019-01-06T15:31:17.372Z,103019.00
2019-01-06T15:33:48.486Z,103023.00
2019-01-06T15:36:35.863Z,103016.00
2019-01-06T15:39:24.738Z,103020.00
2019-01-06T15:42:04.531Z,103018.00
2019-01-06T15:44:35.642Z,103023.00
2019-01-06T15:47:15.704Z,103017.00
2019-01-06T15:50:02.922Z,103017.00
2019-01-06T15:52:39.922Z,103025.00
2019-01-06T15:55:11.224Z,103024.00
2019-01-06T15:57:42.312Z,103024.00
2019-01-06T16:00:28.825Z,103020.00
2019-01-06T16:03:02.726Z,103026.00
2019-01-06T16:05:36.742Z,103031.00
2019-01-06T16:08:22.676Z,103029.00
2019-01-06T16:11:09.812Z,103027.00
2019-01-06T16:13:57.398Z,103027.00
2019-01-06T16:16:28.564Z,103034.00
2019-01-06T16:19:08.425Z,103039.00
2019-01-06T16:21:39.605Z,103039.00
2019-01-06T16:24:16.383Z,103031.00
2019-01-06T16:27:03.539Z,103034.00
2019-01-06T16:29:46.786Z,103038.00
2019-01-06T16:32:17.966Z,103038.00
2019-01-06T16:35:00.900Z,103032.00
2019-01-06T16:37:40.960Z,103039.00
2019-01-06T16:40:12.091Z,103033.00
2019-01-06T16:42:45.766Z,103044.00
2019-01-06T16:45:16.978Z,103036.00
2019-01-06T16:47:51.035Z,103033.00
2019-01-06T16:50:38.129Z,103031.00
2019-01-06T16:53:25.212Z,103034.00
2019-01-06T16:56:12.394Z,103032.00
2019-01-06T16:59:00.015Z,103042.00
2019-01-06T17:01:31.195Z,103044.00
2019-01-06T17:04:18.442Z,103043.00
2019-01-06T17:07:05.719Z,103050.00
2019-01-06T17:09:54.978Z,103052.00
2019-01-06T17:12:38.074Z,103049.00
2019-01-06T17:15:15.004Z,103048.00
2019-01-06T17:18:02.155Z,103046.00
2019-01-06T17:20:49.186Z,103055.00
2019-01-06T17:23:23.164Z,103057.00
2019-01-06T17:25:56.955Z,103059.00
2019-01-06T17:28:44.522Z,103050.00
2019-01-06T17:31:15.624Z,103059.00
2019-01-06T17:34:03.075Z,103063.00
2019-01-06T17:36:42.775Z,103055.00
2019-01-06T17:39:20.275Z,103054.00
2019-01-06T17:42:09.703Z,103056.00
2019-01-06T17:44:43.291Z,103056.00
2019-01-06T17:47:14.360Z,103058.00
2019-01-06T17:49:51.792Z,103055.00
2019-01-06T17:52:28.517Z,103059.00
2019-01-06T17:55:02.324Z,103064.00
2019-01-06T17:57:33.410Z,103063.00
2019-01-06T18:00:07.198Z,103064.00
2019-01-06T18:02:54.557Z,103072.00
2019-01-06T18:05:31.284Z,103079.00
2019-01-06T18:08:05.119Z,103082.00
2019-01-06T18:10:52.837Z,103087.00
2019-01-06T18:13:26.486Z,103087.00
2019-01-06T18:16:15.755Z,103089.00
2019-01-06T18:19:01.628Z,103090.00
2019-01-06T18:21:38.616Z,103088.00
2019-01-06T18:24:18.738Z,103092.00
2019-01-06T18:26:55.514Z,103088.00
2019-01-06T18:29:38.374Z,103086.00
2019-01-06T18:32:18.607Z,103089.00
2019-01-06T18:37:54.911Z,103090.00
2019-01-06T18:40:42.338Z,103096.00
2019-01-06T18:43:13.455Z,103096.00
2019-01-06T18:45:59.517Z,103095.00
2019-01-06T18:48:33.608Z,103096.00
2019-01-06T18:51:07.429Z,103097.00
2019-01-06T18:53:54.501Z,103099.00
2019-01-06T18:56:40.745Z,103097.00
2019-01-06T18:59:20.775Z,103099.00
2019-01-06T19:02:08.075Z,103096.00
2019-01-06T19:04:41.709Z,103098.00
2019-01-06T19:07:18.448Z,103090.00
2019-01-06T19:10:06.390Z,103098.00
2019-01-06T19:12:37.479Z,103104.00
2019-01-06T19:15:08.701Z,103098.00
2019-01-06T19:17:56.117Z,103099.00
2019-01-06T19:20:27.196Z,103099.00
2019-01-06T19:22:58.330Z,103097.00
2019-01-06T19:25:47.823Z,103098.00
2019-01-06T19:28:24.552Z,103104.00
2019-01-06T19:31:01.821Z,103103.00
2019-01-06T19:33:44.764Z,103091.00
2019-01-06T19:36:27.735Z,103089.00
2019-01-06T19:39:01.633Z,103089.00
2019-01-06T19:41:35.379Z,103090.00
2019-01-06T19:44:22.557Z,103078.00
2019-01-06T19:47:11.225Z,103085.00
2019-01-06T19:49:45.143Z,103088.00
2019-01-06T19:52:22.115Z,103084.00
2019-01-06T19:55:09.305Z,103091.00
2019-01-06T19:57:47.038Z,103089.00
2019-01-06T20:00:25.086Z,103091.00
2019-01-06T20:02:56.250Z,103084.00
2019-01-06T20:05:43.544Z,103091.00
2019-01-06T20:08:14.815Z,103097.00
2019-01-06T20:10:45.934Z,103092.00
2019-01-06T20:13:19.607Z,103093.00
2019-01-06T20:15:50.721Z,103102.00
2019-01-06T20:18:21.903Z,103104.00
2019-01-06T20:20:58.873Z,103104.00
2019-01-06T20:23:32.941Z,103103.00
2019-01-06T20:26:04.064Z,103100.00
2019-01-06T20:28:35.175Z,103100.00
2019-01-06T20:31:24.328Z,103101.00
2019-01-06T20:34:11.667Z,103103.00
2019-01-06T20:36:51.415Z,103109.00
2019-01-06T20:39:38.897Z,103106.00
2019-01-06T20:42:21.869Z,103105.00
2019-01-06T20:44:58.767Z,103100.00
2019-01-06T20:47:44.988Z,103103.00
2019-01-06T20:50:32.523Z,103102.00
2019-01-06T20:53:12.789Z,103106.00
2019-01-06T20:56:00.068Z,103107.00
2019-01-06T20:58:43.252Z,103109.00
2019-01-06T21:01:16.979Z,103101.00
2019-01-06T21:03:50.936Z,103098.00
2019-01-06T21:06:30.725Z,103108.00
2019-01-06T21:09:16.990Z,103107.00
2019-01-06T21:11:48.091Z,103113.00
2019-01-06T21:14:35.445Z,103119.00
2019-01-06T21:17:06.621Z,103115.00
2019-01-06T21:19:40.366Z,103119.00
2019-01-06T21:22:27.892Z,103121.00
2019-01-06T21:25:07.858Z,103120.00
2019-01-06T21:27:54.165Z,103118.00
2019-01-06T21:30:41.647Z,103117.00
2019-01-06T21:33:12.735Z,103125.00
2019-01-06T21:35:46.589Z,103123.00
2019-01-06T21:38:32.531Z,103127.00
2019-01-06T21:41:19.896Z,103119.00
2019-01-06T21:43:56.910Z,103123.00
2019-01-06T21:46:28.026Z,103126.00
2019-01-06T21:48:59.148Z,103132.00
2019-01-06T21:51:42.420Z,103124.00
2019-01-06T21:54:29.520Z,103131.00
2019-01-06T21:57:18.969Z,103127.00
2019-01-06T22:00:05.951Z,103133.00
2019-01-06T22:02:51.918Z,103131.00
2019-01-06T22:05:23.018Z,103131.00
2019-01-06T22:07:54.129Z,103125.00
2019-01-06T22:10:37.127Z,103122.00
2019-01-06T22:13:20.330Z,103119.00
2019-01-06T22:16:06.462Z,103117.00
2019-01-06T22:18:37.612Z,103118.00
2019-01-06T22:21:11.618Z,103118.00
2019-01-06T22:23:51.687Z,103108.00
2019-01-06T22:26:38.957Z,103109.00
2019-01-06T22:29:10.057Z,103103.00
2019-01-06T22:31:43.753Z,103104.00
2019-01-06T22:34:31.090Z,103095.00
2019-01-06T22:37:17.399Z,103107.00
2019-01-06T22:39:48.518Z,103107.00
2019-01-06T22:42:31.545Z,103106.00
2019-01-06T22:45:02.653Z,103100.00
2019-01-06T22:47:36.195Z,103112.00
2019-01-06T22:50:19.917Z,103118.00
2019-01-06T22:53:08.859Z,103109.00
2019-01-06T22:55:52.092Z,103111.00
2019-01-06T22:58:38.031Z,103097.00
2019-01-06T23:01:12.196Z,103103.00
2019-01-06T23:03:59.665Z,103104.00
2019-01-06T23:06:47.131Z,103101.00
2019-01-06T23:09:34.190Z,103105.00
2019-01-06T23:12:21.566Z,103108.00
2019-01-06T23:15:08.915Z,103110.00
2019-01-06T23:17:48.915Z,103119.00
2019-01-06T23:20:22.569Z,103114.00
2019-01-06T23:22:53.716Z,103115.00
2019-01-06T23:25:41.134Z,103123.00
2019-01-06T23:28:12.265Z,103124.00
2019-01-06T23:30:47.337Z,103122.00
2019-01-06T23:33:36.385Z,103126.00
2019-01-06T23:36:07.464Z,103129.00
2019-01-06T23:38:38.570Z,103123.00
2019-01-06T23:41:09.691Z,103107.00
2019-01-06T23:43:43.616Z,103113.00
2019-01-06T23:46:17.391Z,103119.00
2019-01-06T23:48:51.371Z,103111.00
2019-01-06T23:51:38.698Z,103120.00
2019-01-06T23:54:09.792Z,103113.00
2019-01-06T23:56:54.507Z,103108.00
2019-01-06T23:59:25.673Z,103109.00
